createdAt,value
2023-04-23T00:02:22.945Z,78.55
2023-04-23T00:04:53.921Z,79.02
2023-04-23T00:07:22.167Z,79.29
2023-04-23T00:09:53.942Z,80.51
2023-04-23T00:12:22.053Z,80.32
2023-04-23T00:14:50.277Z,80.23
2023-04-23T00:17:17.979Z,80.92
2023-04-23T00:19:47.444Z,81.49
2023-04-23T00:22:17.962Z,81.31
2023-04-23T00:24:45.607Z,81.78
2023-04-23T00:27:13.498Z,81.70
2023-04-23T00:30:08.346Z,81.38
2023-04-23T00:32:36.462Z,81.73
2023-04-23T00:35:06.410Z,81.67
2023-04-23T00:37:34.197Z,81.01
2023-04-23T00:40:02.287Z,81.25
2023-04-23T00:42:30.276Z,81.10
2023-04-23T00:44:58.192Z,81.38
2023-04-23T00:47:26.313Z,80.58
2023-04-23T00:49:55.586Z,81.36
2023-04-23T00:52:24.608Z,81.02
2023-04-23T00:54:52.288Z,80.54
2023-04-23T00:57:20.072Z,80.97
2023-04-23T00:59:47.889Z,81.63
2023-04-23T01:02:16.143Z,80.22
2023-04-23T01:04:44.945Z,79.83
2023-04-23T01:07:13.688Z,79.83
2023-04-23T01:09:42.732Z,79.67
2023-04-23T01:12:11.340Z,79.84
2023-04-23T01:14:39.512Z,79.59
2023-04-23T01:17:08.507Z,79.69
2023-04-23T01:19:36.646Z,78.68
2023-04-23T01:22:04.428Z,78.89
2023-04-23T01:24:33.904Z,79.47
2023-04-23T01:27:01.654Z,79.40
2023-04-23T01:29:31.111Z,79.16
2023-04-23T01:32:00.207Z,79.14
2023-04-23T01:34:27.912Z,78.79
2023-04-23T01:36:55.862Z,78.71
2023-04-23T01:39:23.591Z,78.15
2023-04-23T01:41:54.036Z,78.14
2023-04-23T01:44:21.717Z,79.28
2023-04-23T01:46:49.392Z,79.61
2023-04-23T01:49:17.180Z,79.74
2023-04-23T01:51:44.828Z,80.29
2023-04-23T01:54:12.662Z,80.20
2023-04-23T01:56:40.415Z,80.44
2023-04-23T01:59:09.534Z,80.27
2023-04-23T02:01:45.344Z,78.40
2023-04-23T02:04:14.652Z,79.18
2023-04-23T02:06:45.099Z,79.18
2023-04-23T02:09:12.817Z,79.35
2023-04-23T02:11:40.567Z,79.45
2023-04-23T02:14:10.871Z,79.92
2023-04-23T02:16:38.618Z,80.41
2023-04-23T02:19:06.620Z,80.29
2023-04-23T02:21:34.316Z,80.83
2023-04-23T02:24:01.990Z,80.93
2023-04-23T02:26:29.881Z,81.33
2023-04-23T02:28:57.454Z,81.72
2023-04-23T02:31:26.694Z,82.04
2023-04-23T02:33:54.389Z,81.99
2023-04-23T02:36:22.368Z,81.40
2023-04-23T02:38:51.208Z,81.19
2023-04-23T02:41:18.987Z,81.33
2023-04-23T02:43:46.940Z,80.58
2023-04-23T02:46:14.914Z,80.56
2023-04-23T02:48:44.184Z,80.15
2023-04-23T02:51:14.020Z,80.24
2023-04-23T02:53:41.702Z,80.21
2023-04-23T02:56:09.358Z,80.89
2023-04-23T02:58:37.649Z,80.02
2023-04-23T03:01:06.249Z,79.96
2023-04-23T03:03:34.895Z,79.22
2023-04-23T03:06:06.758Z,80.26
2023-04-23T03:08:34.729Z,79.20
2023-04-23T03:11:02.346Z,79.05
2023-04-23T03:13:30.075Z,79.38
2023-04-23T03:15:57.933Z,78.95
2023-04-23T03:18:26.008Z,78.87
2023-04-23T03:20:53.662Z,78.88
2023-04-23T03:23:22.641Z,79.57
2023-04-23T03:25:50.248Z,80.17
2023-04-23T03:28:17.924Z,78.31
2023-04-23T03:30:45.752Z,78.12
2023-04-23T03:33:13.401Z,77.88
2023-04-23T03:35:41.156Z,77.88
2023-04-23T03:38:08.843Z,78.40
2023-04-23T03:40:37.762Z,78.46
2023-04-23T03:43:05.390Z,77.94
2023-04-23T03:45:33.507Z,77.65
2023-04-23T03:48:01.324Z,77.39
2023-04-23T03:50:29.693Z,77.42
2023-04-23T03:52:57.342Z,77.91
2023-04-23T03:55:25.337Z,78.76
2023-04-23T03:57:54.297Z,78.50
2023-04-23T04:00:22.112Z,79.49
2023-04-23T04:02:49.848Z,79.32
2023-04-23T04:05:17.854Z,78.86
2023-04-23T04:07:45.688Z,79.38
2023-04-23T04:10:13.266Z,79.90
2023-04-23T04:12:41.978Z,79.55
2023-04-23T04:15:12.307Z,80.34
2023-04-23T04:17:40.089Z,78.38
2023-04-23T04:20:10.117Z,78.68
2023-04-23T04:22:38.068Z,78.50
2023-04-23T04:25:06.966Z,77.82
2023-04-23T04:27:34.796Z,78.58
2023-04-23T04:30:03.061Z,78.79
2023-04-23T04:32:32.070Z,76.96
2023-04-23T04:34:59.764Z,77.20
2023-04-23T04:37:28.030Z,78.50
2023-04-23T04:39:55.651Z,79.17
2023-04-23T04:42:23.278Z,79.27
2023-04-23T04:44:51.235Z,79.74
2023-04-23T04:47:19.295Z,80.52
2023-04-23T04:49:48.817Z,80.55
2023-04-23T04:52:16.896Z,80.68
2023-04-23T04:54:45.079Z,81.22
2023-04-23T04:57:12.760Z,81.24
2023-04-23T04:59:40.629Z,81.14
2023-04-23T05:02:08.639Z,80.79
2023-04-23T05:04:36.316Z,81.17
2023-04-23T05:07:05.555Z,81.02
2023-04-23T05:09:33.280Z,80.95
2023-04-23T05:12:01.660Z,80.84
2023-04-23T05:14:29.892Z,81.09
2023-04-23T05:16:57.799Z,81.29
2023-04-23T05:19:25.614Z,80.61
2023-04-23T05:22:23.523Z,80.48
2023-04-23T05:24:51.313Z,82.23
2023-04-23T05:27:18.946Z,81.62
2023-04-23T05:29:46.701Z,79.70
2023-04-23T05:32:14.867Z,80.14
2023-04-23T05:34:42.864Z,78.95
2023-04-23T05:37:11.048Z,79.76
2023-04-23T05:39:40.141Z,79.94
2023-04-23T05:42:08.020Z,81.02
2023-04-23T05:44:35.680Z,78.68
2023-04-23T05:47:03.355Z,77.58
2023-04-23T05:49:31.051Z,75.98
2023-04-23T05:51:59.301Z,74.86
2023-04-23T05:54:26.994Z,74.47
2023-04-23T05:56:56.154Z,74.73
2023-04-23T05:59:24.051Z,75.62
2023-04-23T06:01:52.521Z,76.32
2023-04-23T06:04:20.992Z,75.25
2023-04-23T06:06:48.987Z,72.88
2023-04-23T06:09:16.753Z,70.29
2023-04-23T06:11:44.543Z,66.63
2023-04-23T06:14:13.616Z,68.68
2023-04-23T06:16:41.398Z,64.54
2023-04-23T06:19:09.107Z,63.03
2023-04-23T06:21:36.793Z,63.87
2023-04-23T06:24:07.386Z,64.05
2023-04-23T06:26:35.130Z,64.05
2023-04-23T06:29:02.912Z,64.44
2023-04-23T06:31:31.994Z,65.93
2023-04-23T06:33:59.765Z,64.98
2023-04-23T06:36:27.467Z,65.51
2023-04-23T06:38:55.093Z,64.86
2023-04-23T06:41:22.799Z,64.08
2023-04-23T06:43:50.481Z,66.53
2023-04-23T06:46:18.252Z,66.44
2023-04-23T06:48:47.320Z,64.58
2023-04-23T06:51:16.017Z,62.15
2023-04-23T06:53:43.722Z,62.04
2023-04-23T06:56:11.426Z,61.39
2023-04-23T06:58:39.231Z,62.06
2023-04-23T07:01:07.456Z,59.39
2023-04-23T07:03:36.387Z,60.76
2023-04-23T07:06:05.686Z,60.46
2023-04-23T07:08:33.400Z,63.27
2023-04-23T07:11:01.236Z,63.78
2023-04-23T07:13:29.158Z,63.36
2023-04-23T07:15:56.849Z,63.10
2023-04-23T07:18:24.795Z,64.94
2023-04-23T07:20:52.634Z,65.08
2023-04-23T07:23:21.629Z,63.63
2023-04-23T07:25:49.412Z,61.99
2023-04-23T07:28:17.066Z,62.20
2023-04-23T07:30:44.844Z,62.74
2023-04-23T07:33:13.233Z,60.64
2023-04-23T07:35:41.013Z,60.02
2023-04-23T07:38:08.903Z,58.92
2023-04-23T07:40:38.043Z,59.38
2023-04-23T07:43:05.746Z,58.56
2023-04-23T07:45:33.519Z,58.85
2023-04-23T07:48:02.343Z,59.39
2023-04-23T07:50:30.799Z,59.86
2023-04-23T07:52:58.561Z,56.90
2023-04-23T07:55:26.337Z,56.54
2023-04-23T07:57:55.413Z,57.55
2023-04-23T08:00:23.287Z,55.55
2023-04-23T08:02:51.830Z,56.09
2023-04-23T08:05:19.696Z,56.35
2023-04-23T08:07:47.740Z,56.66
2023-04-23T08:10:15.495Z,55.08
2023-04-23T08:12:43.266Z,50.36
2023-04-23T08:15:13.382Z,49.38
2023-04-23T08:17:41.185Z,50.18
2023-04-23T08:20:09.946Z,50.16
2023-04-23T08:22:37.718Z,50.67
2023-04-23T08:25:06.216Z,52.29
2023-04-23T08:27:33.968Z,53.98
2023-04-23T08:30:01.845Z,53.92
2023-04-23T08:32:31.594Z,52.49
2023-04-23T08:34:59.777Z,50.51
2023-04-23T08:37:31.178Z,49.95
2023-04-23T08:39:59.542Z,49.42
2023-04-23T08:42:37.267Z,49.28
2023-04-23T08:45:06.456Z,49.28
2023-04-23T08:47:36.852Z,48.22
2023-04-23T08:50:05.909Z,49.78
2023-04-23T08:52:35.821Z,51.67
2023-04-23T08:55:10.583Z,52.25
2023-04-23T08:57:41.690Z,52.96
2023-04-23T09:00:11.705Z,54.87
2023-04-23T09:02:42.797Z,55.62
2023-04-23T09:05:11.574Z,55.57
2023-04-23T09:07:39.640Z,56.37
2023-04-23T09:10:09.619Z,55.17
2023-04-23T09:12:37.586Z,55.34
2023-04-23T09:15:10.402Z,56.04
2023-04-23T09:17:42.352Z,56.89
2023-04-23T09:20:10.953Z,56.88
2023-04-23T09:22:45.295Z,56.42
2023-04-23T09:25:17.271Z,57.74
2023-04-23T09:27:46.282Z,57.12
2023-04-23T09:30:15.589Z,57.72
2023-04-23T09:32:46.773Z,56.06
2023-04-23T09:35:16.133Z,56.72
2023-04-23T09:37:48.373Z,57.16
2023-04-23T09:40:18.221Z,56.86
2023-04-23T09:42:50.633Z,57.08
2023-04-23T09:45:18.785Z,53.73
2023-04-23T09:47:52.726Z,52.47
2023-04-23T09:50:20.833Z,50.86
2023-04-23T09:52:56.151Z,50.55
2023-04-23T09:55:30.750Z,49.18
2023-04-23T09:57:59.458Z,46.73
2023-04-23T10:00:30.581Z,51.11
2023-04-23T10:03:11.813Z,49.03
2023-04-23T10:08:14.521Z,48.26
2023-04-23T10:10:57.406Z,46.82
2023-04-23T10:13:28.488Z,47.19
2023-04-23T10:16:07.095Z,47.14
2023-04-23T10:18:43.692Z,46.21
2023-04-23T10:21:15.120Z,48.68
2023-04-23T10:23:45.458Z,48.40
2023-04-23T10:26:16.449Z,49.41
2023-04-23T10:28:48.915Z,49.67
2023-04-23T10:31:16.973Z,49.51
2023-04-23T10:33:56.976Z,50.48
2023-04-23T10:36:28.213Z,50.64
2023-04-23T10:39:00.790Z,51.38
2023-04-23T10:41:35.552Z,52.26
2023-04-23T10:44:04.677Z,54.88
2023-04-23T10:46:34.096Z,55.59
2023-04-23T10:49:14.708Z,54.50
2023-04-23T10:52:14.071Z,54.34
2023-04-23T10:54:32.490Z,52.12
2023-04-23T10:57:03.013Z,52.48
2023-04-23T10:59:32.213Z,52.54
2023-04-23T11:02:07.078Z,53.50
2023-04-23T11:04:38.051Z,52.65
2023-04-23T11:07:07.685Z,51.58
2023-04-23T11:09:41.338Z,51.95
2023-04-23T11:12:12.497Z,51.49
2023-04-23T11:14:47.709Z,50.47
2023-04-23T11:17:17.064Z,48.60
2023-04-23T11:20:10.526Z,48.86
2023-04-23T11:22:39.460Z,48.51
2023-04-23T11:25:11.213Z,49.13
2023-04-23T11:27:41.958Z,48.74
2023-04-23T11:30:13.616Z,48.43
2023-04-23T11:32:42.145Z,50.01
2023-04-23T11:35:13.912Z,48.99
2023-04-23T11:37:43.387Z,49.54
2023-04-23T11:40:14.046Z,48.47
2023-04-23T11:42:46.585Z,47.71
2023-04-23T11:45:21.586Z,49.15
2023-04-23T11:47:53.519Z,47.44
2023-04-23T11:50:24.639Z,46.84
2023-04-23T11:52:52.896Z,46.68
2023-04-23T11:55:21.706Z,46.13
2023-04-23T11:57:50.832Z,46.08
2023-04-23T12:00:20.511Z,45.50
2023-04-23T12:02:52.723Z,44.46
2023-04-23T12:05:23.663Z,43.79
2023-04-23T12:07:52.981Z,41.91
2023-04-23T12:10:21.859Z,41.61
2023-04-23T12:12:53.417Z,41.16
2023-04-23T12:15:22.250Z,43.43
2023-04-23T12:17:51.240Z,43.38
2023-04-23T12:20:21.072Z,42.32
2023-04-23T12:22:50.187Z,42.21
2023-04-23T12:25:17.822Z,43.47
2023-04-23T12:27:45.968Z,43.33
2023-04-23T12:30:14.598Z,43.43
2023-04-23T12:32:42.485Z,43.42
2023-04-23T12:35:11.493Z,43.66
2023-04-23T12:37:39.456Z,44.25
2023-04-23T12:40:10.190Z,43.79
2023-04-23T12:42:37.975Z,45.50
2023-04-23T12:45:10.821Z,44.61
2023-04-23T12:47:38.519Z,44.86
2023-04-23T12:50:07.809Z,43.98
2023-04-23T12:52:35.461Z,42.26
2023-04-23T12:55:04.953Z,42.15
2023-04-23T12:57:34.087Z,42.33
2023-04-23T13:00:02.268Z,42.98
2023-04-23T13:02:30.259Z,44.55
2023-04-23T13:05:01.188Z,43.55
2023-04-23T13:07:29.327Z,43.58
2023-04-23T13:09:57.248Z,43.88
2023-04-23T13:12:25.197Z,44.82
2023-04-23T13:14:54.501Z,43.60
2023-04-23T13:17:23.090Z,42.54
2023-04-23T13:19:50.861Z,41.34
2023-04-23T13:22:18.564Z,40.11
2023-04-23T13:24:46.188Z,40.39
2023-04-23T13:27:13.980Z,38.68
2023-04-23T13:29:42.035Z,38.79
2023-04-23T13:32:11.476Z,38.10
2023-04-23T13:34:39.645Z,38.41
2023-04-23T13:37:09.394Z,38.27
2023-04-23T13:39:38.744Z,39.49
2023-04-23T13:42:09.907Z,39.54
2023-04-23T13:44:38.519Z,39.48
2023-04-23T13:47:06.361Z,39.01
2023-04-23T13:49:35.969Z,39.60
2023-04-23T13:52:07.141Z,38.84
2023-04-23T13:54:35.628Z,38.24
2023-04-23T13:57:03.595Z,39.43
2023-04-23T13:59:31.251Z,41.31
2023-04-23T14:01:59.115Z,40.41
2023-04-23T14:04:26.987Z,40.40
2023-04-23T14:06:56.164Z,40.45
2023-04-23T14:09:23.971Z,40.16
2023-04-23T14:11:51.780Z,40.54
2023-04-23T14:14:19.434Z,41.01
2023-04-23T14:16:47.073Z,41.33
2023-04-23T14:19:14.748Z,41.46
2023-04-23T14:21:42.906Z,41.78
2023-04-23T14:24:19.574Z,41.42
2023-04-23T14:26:49.771Z,41.17
2023-04-23T14:29:26.129Z,41.41
2023-04-23T14:31:53.914Z,41.97
2023-04-23T14:34:22.138Z,41.31
2023-04-23T14:36:49.967Z,41.13
2023-04-23T14:39:19.021Z,41.84
2023-04-23T14:41:46.909Z,42.80
2023-04-23T14:44:14.548Z,42.86
2023-04-23T14:46:42.166Z,43.04
2023-04-23T14:49:09.849Z,43.14
2023-04-23T14:51:38.173Z,43.08
2023-04-23T14:54:06.232Z,44.21
2023-04-23T14:56:35.337Z,43.77
2023-04-23T14:59:03.117Z,44.19
2023-04-23T15:01:31.137Z,46.54
2023-04-23T15:03:58.974Z,45.91
2023-04-23T15:06:26.700Z,45.97
2023-04-23T15:08:54.386Z,46.15
2023-04-23T15:11:22.150Z,46.24
2023-04-23T15:14:03.645Z,46.52
2023-04-23T15:16:46.628Z,46.24
2023-04-23T15:19:15.053Z,49.46
2023-04-23T15:21:43.276Z,49.30
2023-04-23T15:24:11.191Z,49.80
2023-04-23T15:26:38.955Z,48.63
2023-04-23T15:29:09.083Z,48.02
2023-04-23T15:31:37.067Z,47.34
2023-04-23T15:34:07.087Z,50.81
2023-04-23T15:36:35.589Z,51.51
2023-04-23T15:39:03.259Z,52.76
2023-04-23T15:41:31.098Z,53.62
2023-04-23T15:43:58.784Z,54.37
2023-04-23T15:46:27.874Z,55.37
2023-04-23T15:48:55.538Z,55.50
2023-04-23T15:51:23.330Z,55.75
2023-04-23T15:53:51.515Z,58.54
2023-04-23T15:56:19.247Z,60.46
2023-04-23T15:58:46.910Z,61.56
2023-04-23T16:01:14.823Z,63.38
2023-04-23T16:03:50.597Z,63.80
2023-04-23T16:06:29.894Z,65.40
2023-04-23T16:08:57.521Z,63.80
2023-04-23T16:11:27.636Z,65.20
2023-04-23T16:13:56.929Z,65.49
2023-04-23T16:16:24.657Z,65.82
2023-04-23T16:18:54.366Z,65.01
2023-04-23T16:21:23.450Z,64.82
2023-04-23T16:23:51.281Z,64.61
2023-04-23T16:26:18.947Z,64.76
2023-04-23T16:28:51.972Z,64.50
2023-04-23T16:31:24.181Z,64.00
2023-04-23T16:33:53.233Z,61.63
2023-04-23T16:36:21.178Z,61.35
2023-04-23T16:38:49.574Z,63.13
2023-04-23T16:41:19.053Z,62.72
2023-04-23T16:43:47.604Z,63.12
2023-04-23T16:46:16.478Z,62.22
2023-04-23T16:48:47.416Z,62.55
2023-04-23T16:51:16.952Z,61.04
2023-04-23T16:53:44.587Z,62.04
2023-04-23T16:56:12.414Z,62.45
2023-04-23T16:58:40.169Z,62.99
2023-04-23T17:01:07.914Z,62.81
2023-04-23T17:03:36.554Z,63.79
2023-04-23T17:06:11.302Z,62.72
2023-04-23T17:08:41.117Z,62.44
2023-04-23T17:11:09.229Z,63.01
2023-04-23T17:13:36.941Z,63.11
2023-04-23T17:16:04.722Z,62.48
2023-04-23T17:18:32.517Z,62.04
2023-04-23T17:21:00.311Z,61.31
2023-04-23T17:23:29.142Z,61.25
2023-04-23T17:25:58.214Z,61.58
2023-04-23T17:28:25.968Z,61.43
2023-04-23T17:30:55.864Z,60.71
2023-04-23T17:33:23.703Z,61.06
2023-04-23T17:35:53.216Z,60.59
2023-04-23T17:38:21.185Z,60.27
2023-04-23T17:40:49.826Z,60.14
2023-04-23T17:43:20.131Z,60.04
2023-04-23T17:45:48.713Z,59.93
2023-04-23T17:48:16.966Z,60.81
2023-04-23T17:50:46.884Z,61.00
2023-04-23T17:53:14.940Z,61.05
2023-04-23T17:55:42.802Z,61.37
2023-04-23T17:58:10.464Z,61.67
2023-04-23T18:00:42.210Z,62.08
2023-04-23T18:03:11.658Z,62.31
2023-04-23T18:05:40.195Z,62.42
2023-04-23T18:08:08.190Z,62.47
2023-04-23T18:10:36.108Z,62.82
2023-04-23T18:13:04.814Z,62.32
2023-04-23T18:15:33.292Z,63.07
2023-04-23T18:18:02.556Z,63.12
2023-04-23T18:20:32.228Z,63.94
2023-04-23T18:23:00.864Z,64.38
2023-04-23T18:25:28.562Z,64.07
2023-04-23T18:27:56.365Z,64.58
2023-04-23T18:30:25.747Z,64.43
2023-04-23T18:33:00.657Z,64.85
2023-04-23T18:35:29.951Z,64.85
2023-04-23T18:38:03.128Z,64.48
2023-04-23T18:40:30.917Z,65.34
2023-04-23T18:42:58.716Z,65.10
2023-04-23T18:45:26.573Z,65.32
2023-04-23T18:47:59.449Z,65.43
2023-04-23T18:50:42.702Z,65.45
2023-04-23T18:53:10.490Z,65.23
2023-04-23T18:55:38.222Z,65.15
2023-04-23T18:58:06.157Z,64.74
2023-04-23T19:00:34.071Z,63.77
2023-04-23T19:03:06.761Z,63.35
2023-04-23T19:05:42.030Z,62.40
2023-04-23T19:08:10.031Z,62.46
2023-04-23T19:10:39.386Z,61.83
2023-04-23T19:13:07.418Z,62.36
2023-04-23T19:15:36.081Z,62.36
2023-04-23T19:18:06.122Z,62.80
2023-04-23T19:20:33.858Z,63.01
2023-04-23T19:23:04.836Z,62.92
2023-04-23T19:25:32.561Z,63.08
2023-04-23T19:28:00.267Z,63.31
2023-04-23T19:30:28.311Z,63.38
2023-04-23T19:32:56.192Z,63.18
2023-04-23T19:35:23.902Z,63.03
2023-04-23T19:37:51.585Z,63.47
2023-04-23T19:40:20.602Z,63.67
2023-04-23T19:42:48.660Z,63.44
2023-04-23T19:45:18.247Z,64.02
2023-04-23T19:47:46.037Z,64.24
2023-04-23T19:50:14.570Z,64.15
2023-04-23T19:52:42.281Z,64.33
2023-04-23T19:55:10.600Z,64.36
2023-04-23T19:57:39.644Z,64.35
2023-04-23T20:00:12.363Z,64.20
2023-04-23T20:02:40.388Z,64.19
2023-04-23T20:05:10.317Z,64.55
2023-04-23T20:07:37.999Z,64.26
2023-04-23T20:10:06.481Z,64.30
2023-04-23T20:12:34.914Z,64.29
2023-04-23T20:15:04.179Z,64.08
2023-04-23T20:17:32.831Z,64.10
2023-04-23T20:20:01.949Z,63.53
2023-04-23T20:22:30.089Z,63.06
2023-04-23T20:24:58.864Z,63.57
2023-04-23T20:27:26.912Z,64.07
2023-04-23T20:29:54.597Z,63.74
2023-04-23T20:32:23.694Z,63.84
2023-04-23T20:34:52.704Z,63.84
2023-04-23T20:37:21.474Z,63.96
2023-04-23T20:39:49.996Z,64.27
2023-04-23T20:42:18.183Z,64.15
2023-04-23T20:44:47.034Z,64.55
2023-04-23T20:47:16.307Z,64.20
2023-04-23T20:49:45.515Z,63.93
2023-04-23T20:52:14.588Z,63.96
2023-04-23T20:54:42.753Z,64.15
2023-04-23T20:57:10.745Z,63.82
2023-04-23T20:59:38.659Z,63.98
2023-04-23T21:02:07.499Z,64.04
2023-04-23T21:04:35.821Z,64.05
2023-04-23T21:07:05.040Z,64.67
2023-04-23T21:09:32.911Z,64.79
2023-04-23T21:12:00.828Z,65.01
2023-04-23T21:14:29.336Z,65.08
2023-04-23T21:16:57.010Z,64.94
2023-04-23T21:19:24.633Z,65.02
2023-04-23T21:21:52.685Z,65.17
2023-04-23T21:24:21.660Z,65.85
2023-04-23T21:26:49.455Z,66.92
2023-04-23T21:29:17.202Z,66.79
2023-04-23T21:31:48.223Z,66.84
2023-04-23T21:34:16.633Z,66.80
2023-04-23T21:36:45.142Z,66.83
2023-04-23T21:39:13.493Z,67.20
2023-04-23T21:41:42.719Z,66.92
2023-04-23T21:44:10.424Z,67.21
2023-04-23T21:46:38.183Z,67.74
2023-04-23T21:49:06.863Z,67.84
2023-04-23T21:51:36.727Z,67.77
2023-04-23T21:54:05.501Z,67.67
2023-04-23T21:56:33.509Z,68.10
2023-04-23T21:59:02.898Z,67.87
2023-04-23T22:01:31.519Z,67.99
2023-04-23T22:04:01.758Z,67.88
2023-04-23T22:06:29.527Z,68.34
2023-04-23T22:08:57.507Z,67.37
2023-04-23T22:11:25.802Z,68.97
2023-04-23T22:13:53.594Z,68.52
2023-04-23T22:16:28.691Z,68.38
2023-04-23T22:18:57.361Z,68.76
2023-04-23T22:21:25.103Z,67.95
2023-04-23T22:23:52.914Z,69.44
2023-04-23T22:26:21.081Z,69.93
2023-04-23T22:28:48.814Z,69.65
2023-04-23T22:31:17.343Z,69.98
2023-04-23T22:33:46.484Z,70.52
2023-04-23T22:36:14.228Z,70.07
2023-04-23T22:38:41.940Z,70.65
2023-04-23T22:41:09.591Z,70.15
2023-04-23T22:43:37.362Z,70.39
2023-04-23T22:46:05.205Z,70.66
2023-04-23T22:48:32.913Z,70.94
2023-04-23T22:51:03.332Z,71.27
2023-04-23T22:53:32.677Z,70.92
2023-04-23T22:56:00.825Z,71.10
2023-04-23T22:58:28.525Z,71.17
2023-04-23T23:00:56.466Z,71.01
2023-04-23T23:03:24.257Z,70.68
2023-04-23T23:05:51.945Z,71.40
2023-04-23T23:08:20.926Z,71.39
2023-04-23T23:10:48.533Z,71.97
2023-04-23T23:13:16.242Z,71.69
2023-04-23T23:15:43.976Z,71.54
2023-04-23T23:18:11.667Z,72.08
2023-04-23T23:20:40.988Z,71.80
2023-04-23T23:23:08.890Z,71.91
2023-04-23T23:25:38.940Z,71.59
2023-04-23T23:28:06.612Z,71.62
2023-04-23T23:30:34.307Z,71.76
2023-04-23T23:33:02.045Z,71.48
2023-04-23T23:35:29.795Z,71.25
2023-04-23T23:37:57.852Z,71.66
2023-04-23T23:40:25.824Z,71.62
2023-04-23T23:42:55.084Z,72.32
2023-04-23T23:45:22.987Z,72.30
2023-04-23T23:47:50.734Z,72.28
2023-04-23T23:50:18.665Z,71.99
2023-04-23T23:52:46.345Z,71.51
2023-04-23T23:55:14.029Z,72.18
2023-04-23T23:57:42.388Z,72.48
